<?xml version="1.0" encoding="UTF-8" standalone="no" ?>
<gpx xmlns="http://www.topografix.com/GPX/1/1" xmlns:xsi="http://www.w3.org/2001/XMLSchema-instance" xsi:schemaLocation="http://www.topografix.com/GPX/1/1 http://www.topografix.com/GPX/1/1/gpx.xsd" version="1.1" creator="VisuGPX - https://www.visugpx.com">
  <metadata>
    <name>11621410-Montreuil sur Mer. 24 km</name>
  </metadata>
  <trk>
    <name><![CDATA[11621410-Montreuil sur Mer. 24 km]]></name>
    <trkseg>
      <trkpt lat="50.46393" lon="1.76287">
        <ele>51</ele>
        <time>2022-06-28T20:49:35Z</time>
      </trkpt>
      <trkpt lat="50.46411" lon="1.76184">
        <ele>53</ele>
        <time>2022-06-28T20:51:06Z</time>
      </trkpt>
      <trkpt lat="50.46443" lon="1.76128">
        <ele>52</ele>
        <time>2022-06-28T20:52:10Z</time>
      </trkpt>
      <trkpt lat="50.46402" lon="1.76011">
        <ele>47</ele>
        <time>2022-06-28T20:54:03Z</time>
      </trkpt>
      <trkpt lat="50.46416" lon="1.76">
        <ele>46</ele>
        <time>2022-06-28T20:54:24Z</time>
      </trkpt>
      <trkpt lat="50.46419" lon="1.75984">
        <ele>45</ele>
        <time>2022-06-28T20:54:38Z</time>
      </trkpt>
      <trkpt lat="50.46471" lon="1.75977">
        <ele>44</ele>
        <time>2022-06-28T20:55:48Z</time>
      </trkpt>
      <trkpt lat="50.46512" lon="1.75971">
        <ele>43</ele>
        <time>2022-06-28T20:56:43Z</time>
      </trkpt>
      <trkpt lat="50.46555" lon="1.75935">
        <ele>40</ele>
        <time>2022-06-28T20:57:48Z</time>
      </trkpt>
      <trkpt lat="50.46501" lon="1.7595">
        <ele>41</ele>
        <time>2022-06-28T20:59:01Z</time>
      </trkpt>
      <trkpt lat="50.4645" lon="1.75952">
        <ele>42</ele>
        <time>2022-06-28T21:00:09Z</time>
      </trkpt>
      <trkpt lat="50.46444" lon="1.75942">
        <ele>41</ele>
        <time>2022-06-28T21:00:21Z</time>
      </trkpt>
      <trkpt lat="50.46431" lon="1.75936">
        <ele>41</ele>
        <time>2022-06-28T21:00:39Z</time>
      </trkpt>
      <trkpt lat="50.46418" lon="1.75931">
        <ele>41</ele>
        <time>2022-06-28T21:00:57Z</time>
      </trkpt>
      <trkpt lat="50.46377" lon="1.75822">
        <ele>32</ele>
        <time>2022-06-28T21:02:44Z</time>
      </trkpt>
      <trkpt lat="50.46304" lon="1.75834">
        <ele>36</ele>
        <time>2022-06-28T21:04:22Z</time>
      </trkpt>
      <trkpt lat="50.46247" lon="1.75828">
        <ele>37</ele>
        <time>2022-06-28T21:05:38Z</time>
      </trkpt>
      <trkpt lat="50.46197" lon="1.75708">
        <ele>25</ele>
        <time>2022-06-28T21:07:40Z</time>
      </trkpt>
      <trkpt lat="50.4618" lon="1.75693">
        <ele>25</ele>
        <time>2022-06-28T21:08:06Z</time>
      </trkpt>
      <trkpt lat="50.46129" lon="1.75723">
        <ele>30</ele>
        <time>2022-06-28T21:09:19Z</time>
      </trkpt>
      <trkpt lat="50.4612" lon="1.75757">
        <ele>34</ele>
        <time>2022-06-28T21:09:50Z</time>
      </trkpt>
      <trkpt lat="50.46109" lon="1.75763">
        <ele>35</ele>
        <time>2022-06-28T21:10:06Z</time>
      </trkpt>
      <trkpt lat="50.46048" lon="1.75747">
        <ele>36</ele>
        <time>2022-06-28T21:11:28Z</time>
      </trkpt>
      <trkpt lat="50.45977" lon="1.75721">
        <ele>37</ele>
        <time>2022-06-28T21:13:06Z</time>
      </trkpt>
      <trkpt lat="50.45939" lon="1.75746">
        <ele>42</ele>
        <time>2022-06-28T21:14:01Z</time>
      </trkpt>
      <trkpt lat="50.45927" lon="1.75764">
        <ele>43</ele>
        <time>2022-06-28T21:14:23Z</time>
      </trkpt>
      <trkpt lat="50.45922" lon="1.75808">
        <ele>46</ele>
        <time>2022-06-28T21:15:01Z</time>
      </trkpt>
      <trkpt lat="50.45813" lon="1.75781">
        <ele>44</ele>
        <time>2022-06-28T21:17:28Z</time>
      </trkpt>
      <trkpt lat="50.45767" lon="1.75768">
        <ele>43</ele>
        <time>2022-06-28T21:18:30Z</time>
      </trkpt>
      <trkpt lat="50.45758" lon="1.75756">
        <ele>42</ele>
        <time>2022-06-28T21:18:46Z</time>
      </trkpt>
      <trkpt lat="50.4576" lon="1.75736">
        <ele>42</ele>
        <time>2022-06-28T21:19:03Z</time>
      </trkpt>
      <trkpt lat="50.45715" lon="1.75467">
        <ele>18</ele>
        <time>2022-06-28T21:23:00Z</time>
      </trkpt>
      <trkpt lat="50.45746" lon="1.75269">
        <ele>17</ele>
        <time>2022-06-28T21:25:53Z</time>
      </trkpt>
      <trkpt lat="50.45882" lon="1.7483">
        <ele>41</ele>
        <time>2022-06-28T21:32:48Z</time>
      </trkpt>
      <trkpt lat="50.45933" lon="1.74514">
        <ele>43</ele>
        <time>2022-06-28T21:37:24Z</time>
      </trkpt>
      <trkpt lat="50.45929" lon="1.74265">
        <ele>45</ele>
        <time>2022-06-28T21:40:56Z</time>
      </trkpt>
      <trkpt lat="50.45954" lon="1.74137">
        <ele>48</ele>
        <time>2022-06-28T21:42:50Z</time>
      </trkpt>
      <trkpt lat="50.45992" lon="1.74098">
        <ele>49</ele>
        <time>2022-06-28T21:43:50Z</time>
      </trkpt>
      <trkpt lat="50.46043" lon="1.73935">
        <ele>49</ele>
        <time>2022-06-28T21:46:25Z</time>
      </trkpt>
      <trkpt lat="50.46089" lon="1.73765">
        <ele>46</ele>
        <time>2022-06-28T21:49:02Z</time>
      </trkpt>
      <trkpt lat="50.46149" lon="1.73622">
        <ele>44</ele>
        <time>2022-06-28T21:51:27Z</time>
      </trkpt>
      <trkpt lat="50.46215" lon="1.73461">
        <ele>47</ele>
        <time>2022-06-28T21:54:10Z</time>
      </trkpt>
      <trkpt lat="50.46275" lon="1.73289">
        <ele>45</ele>
        <time>2022-06-28T21:56:56Z</time>
      </trkpt>
      <trkpt lat="50.46362" lon="1.73134">
        <ele>42</ele>
        <time>2022-06-28T21:59:52Z</time>
      </trkpt>
      <trkpt lat="50.46436" lon="1.7325">
        <ele>39</ele>
        <time>2022-06-28T22:02:11Z</time>
      </trkpt>
      <trkpt lat="50.46529" lon="1.73422">
        <ele>37</ele>
        <time>2022-06-28T22:05:23Z</time>
      </trkpt>
      <trkpt lat="50.46588" lon="1.73564">
        <ele>39</ele>
        <time>2022-06-28T22:07:47Z</time>
      </trkpt>
      <trkpt lat="50.46573" lon="1.7374">
        <ele>40</ele>
        <time>2022-06-28T22:10:18Z</time>
      </trkpt>
      <trkpt lat="50.46589" lon="1.7398">
        <ele>36</ele>
        <time>2022-06-28T22:13:43Z</time>
      </trkpt>
      <trkpt lat="50.46592" lon="1.74244">
        <ele>24</ele>
        <time>2022-06-28T22:17:27Z</time>
      </trkpt>
      <trkpt lat="50.46651" lon="1.74377">
        <ele>20</ele>
        <time>2022-06-28T22:19:45Z</time>
      </trkpt>
      <trkpt lat="50.46739" lon="1.74654">
        <ele>14</ele>
        <time>2022-06-28T22:24:08Z</time>
      </trkpt>
      <trkpt lat="50.46786" lon="1.7483">
        <ele>14</ele>
        <time>2022-06-28T22:26:50Z</time>
      </trkpt>
      <trkpt lat="50.46834" lon="1.74905">
        <ele>11</ele>
        <time>2022-06-28T22:28:20Z</time>
      </trkpt>
      <trkpt lat="50.46865" lon="1.74915">
        <ele>9</ele>
        <time>2022-06-28T22:29:03Z</time>
      </trkpt>
      <trkpt lat="50.46869" lon="1.74847">
        <ele>10</ele>
        <time>2022-06-28T22:30:01Z</time>
      </trkpt>
      <trkpt lat="50.46957" lon="1.74832">
        <ele>8</ele>
        <time>2022-06-28T22:31:59Z</time>
      </trkpt>
      <trkpt lat="50.47047" lon="1.74744">
        <ele>7</ele>
        <time>2022-06-28T22:34:20Z</time>
      </trkpt>
      <trkpt lat="50.47077" lon="1.74806">
        <ele>7</ele>
        <time>2022-06-28T22:35:26Z</time>
      </trkpt>
      <trkpt lat="50.47239" lon="1.74937">
        <ele>6</ele>
        <time>2022-06-28T22:39:30Z</time>
      </trkpt>
      <trkpt lat="50.47297" lon="1.7486">
        <ele>5</ele>
        <time>2022-06-28T22:41:11Z</time>
      </trkpt>
      <trkpt lat="50.47351" lon="1.74384">
        <ele>6</ele>
        <time>2022-06-28T22:48:02Z</time>
      </trkpt>
      <trkpt lat="50.47411" lon="1.7422">
        <ele>7</ele>
        <time>2022-06-28T22:50:42Z</time>
      </trkpt>
      <trkpt lat="50.47445" lon="1.74222">
        <ele>6</ele>
        <time>2022-06-28T22:51:28Z</time>
      </trkpt>
      <trkpt lat="50.47477" lon="1.74319">
        <ele>7</ele>
        <time>2022-06-28T22:53:00Z</time>
      </trkpt>
      <trkpt lat="50.47565" lon="1.74411">
        <ele>6</ele>
        <time>2022-06-28T22:55:21Z</time>
      </trkpt>
      <trkpt lat="50.47595" lon="1.7447">
        <ele>7</ele>
        <time>2022-06-28T22:56:26Z</time>
      </trkpt>
      <trkpt lat="50.47624" lon="1.74488">
        <ele>7</ele>
        <time>2022-06-28T22:57:07Z</time>
      </trkpt>
      <trkpt lat="50.47712" lon="1.746">
        <ele>6</ele>
        <time>2022-06-28T22:59:38Z</time>
      </trkpt>
      <trkpt lat="50.47753" lon="1.74684">
        <ele>6</ele>
        <time>2022-06-28T23:01:08Z</time>
      </trkpt>
      <trkpt lat="50.47807" lon="1.74853">
        <ele>7</ele>
        <time>2022-06-28T23:03:49Z</time>
      </trkpt>
      <trkpt lat="50.47832" lon="1.7493">
        <ele>6</ele>
        <time>2022-06-28T23:05:02Z</time>
      </trkpt>
      <trkpt lat="50.47865" lon="1.7489">
        <ele>6</ele>
        <time>2022-06-28T23:05:58Z</time>
      </trkpt>
      <trkpt lat="50.47942" lon="1.74835">
        <ele>5</ele>
        <time>2022-06-28T23:07:51Z</time>
      </trkpt>
      <trkpt lat="50.47988" lon="1.74785">
        <ele>5</ele>
        <time>2022-06-28T23:09:05Z</time>
      </trkpt>
      <trkpt lat="50.48116" lon="1.74881">
        <ele>5</ele>
        <time>2022-06-28T23:12:15Z</time>
      </trkpt>
      <trkpt lat="50.48248" lon="1.75053">
        <ele>4</ele>
        <time>2022-06-28T23:16:03Z</time>
      </trkpt>
      <trkpt lat="50.48229" lon="1.75102">
        <ele>4</ele>
        <time>2022-06-28T23:16:52Z</time>
      </trkpt>
      <trkpt lat="50.48182" lon="1.75177">
        <ele>4</ele>
        <time>2022-06-28T23:18:22Z</time>
      </trkpt>
      <trkpt lat="50.48166" lon="1.75229">
        <ele>5</ele>
        <time>2022-06-28T23:19:11Z</time>
      </trkpt>
      <trkpt lat="50.48269" lon="1.75314">
        <ele>10</ele>
        <time>2022-06-28T23:21:46Z</time>
      </trkpt>
      <trkpt lat="50.483" lon="1.75278">
        <ele>10</ele>
        <time>2022-06-28T23:22:37Z</time>
      </trkpt>
      <trkpt lat="50.48332" lon="1.75232">
        <ele>10</ele>
        <time>2022-06-28T23:23:35Z</time>
      </trkpt>
      <trkpt lat="50.4837" lon="1.75139">
        <ele>8</ele>
        <time>2022-06-28T23:25:09Z</time>
      </trkpt>
      <trkpt lat="50.48392" lon="1.75124">
        <ele>8</ele>
        <time>2022-06-28T23:25:41Z</time>
      </trkpt>
      <trkpt lat="50.48434" lon="1.75176">
        <ele>11</ele>
        <time>2022-06-28T23:26:52Z</time>
      </trkpt>
      <trkpt lat="50.48456" lon="1.75218">
        <ele>12</ele>
        <time>2022-06-28T23:27:39Z</time>
      </trkpt>
      <trkpt lat="50.48463" lon="1.75261">
        <ele>14</ele>
        <time>2022-06-28T23:28:16Z</time>
      </trkpt>
      <trkpt lat="50.48462" lon="1.75299">
        <ele>15</ele>
        <time>2022-06-28T23:28:48Z</time>
      </trkpt>
      <trkpt lat="50.48474" lon="1.7537">
        <ele>16</ele>
        <time>2022-06-28T23:29:51Z</time>
      </trkpt>
      <trkpt lat="50.4849" lon="1.7547">
        <ele>18</ele>
        <time>2022-06-28T23:31:18Z</time>
      </trkpt>
      <trkpt lat="50.48527" lon="1.75577">
        <ele>20</ele>
        <time>2022-06-28T23:33:02Z</time>
      </trkpt>
      <trkpt lat="50.4855" lon="1.7569">
        <ele>20</ele>
        <time>2022-06-28T23:34:43Z</time>
      </trkpt>
      <trkpt lat="50.4856" lon="1.75776">
        <ele>22</ele>
        <time>2022-06-28T23:35:57Z</time>
      </trkpt>
      <trkpt lat="50.48579" lon="1.75862">
        <ele>22</ele>
        <time>2022-06-28T23:37:14Z</time>
      </trkpt>
      <trkpt lat="50.48691" lon="1.7606">
        <ele>25</ele>
        <time>2022-06-28T23:40:59Z</time>
      </trkpt>
      <trkpt lat="50.48816" lon="1.76254">
        <ele>31</ele>
        <time>2022-06-28T23:44:53Z</time>
      </trkpt>
      <trkpt lat="50.4922" lon="1.7634">
        <ele>42</ele>
        <time>2022-06-28T23:53:58Z</time>
      </trkpt>
      <trkpt lat="50.49279" lon="1.76274">
        <ele>46</ele>
        <time>2022-06-28T23:55:34Z</time>
      </trkpt>
      <trkpt lat="50.49831" lon="1.76751">
        <ele>64</ele>
        <time>2022-06-29T00:09:35Z</time>
      </trkpt>
      <trkpt lat="50.49981" lon="1.76709">
        <ele>66</ele>
        <time>2022-06-29T00:12:58Z</time>
      </trkpt>
      <trkpt lat="50.49951" lon="1.76823">
        <ele>66</ele>
        <time>2022-06-29T00:14:43Z</time>
      </trkpt>
      <trkpt lat="50.49915" lon="1.77081">
        <ele>64</ele>
        <time>2022-06-29T00:18:27Z</time>
      </trkpt>
      <trkpt lat="50.49876" lon="1.77254">
        <ele>66</ele>
        <time>2022-06-29T00:21:03Z</time>
      </trkpt>
      <trkpt lat="50.49768" lon="1.77538">
        <ele>68</ele>
        <time>2022-06-29T00:25:44Z</time>
      </trkpt>
      <trkpt lat="50.49735" lon="1.77664">
        <ele>67</ele>
        <time>2022-06-29T00:27:39Z</time>
      </trkpt>
      <trkpt lat="50.49719" lon="1.77902">
        <ele>54</ele>
        <time>2022-06-29T00:31:02Z</time>
      </trkpt>
      <trkpt lat="50.49635" lon="1.77874">
        <ele>45</ele>
        <time>2022-06-29T00:32:57Z</time>
      </trkpt>
      <trkpt lat="50.49671" lon="1.77965">
        <ele>39</ele>
        <time>2022-06-29T00:34:28Z</time>
      </trkpt>
      <trkpt lat="50.49766" lon="1.78093">
        <ele>33</ele>
        <time>2022-06-29T00:37:15Z</time>
      </trkpt>
      <trkpt lat="50.49755" lon="1.78128">
        <ele>26</ele>
        <time>2022-06-29T00:37:48Z</time>
      </trkpt>
      <trkpt lat="50.49749" lon="1.78186">
        <ele>20</ele>
        <time>2022-06-29T00:38:38Z</time>
      </trkpt>
      <trkpt lat="50.49784" lon="1.78261">
        <ele>16</ele>
        <time>2022-06-29T00:39:57Z</time>
      </trkpt>
      <trkpt lat="50.49932" lon="1.78372">
        <ele>17</ele>
        <time>2022-06-29T00:43:36Z</time>
      </trkpt>
      <trkpt lat="50.4994" lon="1.78465">
        <ele>12</ele>
        <time>2022-06-29T00:44:55Z</time>
      </trkpt>
      <trkpt lat="50.49962" lon="1.78546">
        <ele>11</ele>
        <time>2022-06-29T00:46:10Z</time>
      </trkpt>
      <trkpt lat="50.50058" lon="1.7864">
        <ele>11</ele>
        <time>2022-06-29T00:48:41Z</time>
      </trkpt>
      <trkpt lat="50.50064" lon="1.78683">
        <ele>10</ele>
        <time>2022-06-29T00:49:19Z</time>
      </trkpt>
      <trkpt lat="50.50011" lon="1.78711">
        <ele>10</ele>
        <time>2022-06-29T00:50:33Z</time>
      </trkpt>
      <trkpt lat="50.49993" lon="1.78767">
        <ele>11</ele>
        <time>2022-06-29T00:51:26Z</time>
      </trkpt>
      <trkpt lat="50.49951" lon="1.78881">
        <ele>10</ele>
        <time>2022-06-29T00:53:18Z</time>
      </trkpt>
      <trkpt lat="50.49964" lon="1.78967">
        <ele>10</ele>
        <time>2022-06-29T00:54:33Z</time>
      </trkpt>
      <trkpt lat="50.49946" lon="1.79089">
        <ele>13</ele>
        <time>2022-06-29T00:56:20Z</time>
      </trkpt>
      <trkpt lat="50.4993" lon="1.79202">
        <ele>16</ele>
        <time>2022-06-29T00:57:58Z</time>
      </trkpt>
      <trkpt lat="50.4984" lon="1.79266">
        <ele>20</ele>
        <time>2022-06-29T01:00:10Z</time>
      </trkpt>
      <trkpt lat="50.49787" lon="1.79314">
        <ele>22</ele>
        <time>2022-06-29T01:01:31Z</time>
      </trkpt>
      <trkpt lat="50.49769" lon="1.7934">
        <ele>23</ele>
        <time>2022-06-29T01:02:04Z</time>
      </trkpt>
      <trkpt lat="50.49735" lon="1.79336">
        <ele>24</ele>
        <time>2022-06-29T01:02:49Z</time>
      </trkpt>
      <trkpt lat="50.49683" lon="1.79363">
        <ele>28</ele>
        <time>2022-06-29T01:04:02Z</time>
      </trkpt>
      <trkpt lat="50.4964" lon="1.79413">
        <ele>34</ele>
        <time>2022-06-29T01:05:14Z</time>
      </trkpt>
      <trkpt lat="50.49584" lon="1.79437">
        <ele>42</ele>
        <time>2022-06-29T01:06:31Z</time>
      </trkpt>
      <trkpt lat="50.49553" lon="1.79488">
        <ele>49</ele>
        <time>2022-06-29T01:07:31Z</time>
      </trkpt>
      <trkpt lat="50.49513" lon="1.79493">
        <ele>53</ele>
        <time>2022-06-29T01:08:25Z</time>
      </trkpt>
      <trkpt lat="50.4943" lon="1.79571">
        <ele>66</ele>
        <time>2022-06-29T01:10:34Z</time>
      </trkpt>
      <trkpt lat="50.49113" lon="1.79835">
        <ele>80</ele>
        <time>2022-06-29T01:18:32Z</time>
      </trkpt>
      <trkpt lat="50.48936" lon="1.80047">
        <ele>72</ele>
        <time>2022-06-29T01:23:29Z</time>
      </trkpt>
      <trkpt lat="50.48905" lon="1.80135">
        <ele>65</ele>
        <time>2022-06-29T01:24:55Z</time>
      </trkpt>
      <trkpt lat="50.48916" lon="1.80311">
        <ele>59</ele>
        <time>2022-06-29T01:27:25Z</time>
      </trkpt>
      <trkpt lat="50.48888" lon="1.80323">
        <ele>60</ele>
        <time>2022-06-29T01:28:04Z</time>
      </trkpt>
      <trkpt lat="50.48853" lon="1.8032">
        <ele>60</ele>
        <time>2022-06-29T01:28:50Z</time>
      </trkpt>
      <trkpt lat="50.48822" lon="1.80286">
        <ele>60</ele>
        <time>2022-06-29T01:29:41Z</time>
      </trkpt>
      <trkpt lat="50.48781" lon="1.80286">
        <ele>65</ele>
        <time>2022-06-29T01:30:36Z</time>
      </trkpt>
      <trkpt lat="50.48592" lon="1.80511">
        <ele>73</ele>
        <time>2022-06-29T01:35:52Z</time>
      </trkpt>
      <trkpt lat="50.48484" lon="1.80581">
        <ele>71</ele>
        <time>2022-06-29T01:38:28Z</time>
      </trkpt>
      <trkpt lat="50.48385" lon="1.80645">
        <ele>71</ele>
        <time>2022-06-29T01:40:51Z</time>
      </trkpt>
      <trkpt lat="50.48314" lon="1.80669">
        <ele>71</ele>
        <time>2022-06-29T01:42:28Z</time>
      </trkpt>
      <trkpt lat="50.47891" lon="1.80942">
        <ele>80</ele>
        <time>2022-06-29T01:52:38Z</time>
      </trkpt>
      <trkpt lat="50.47652" lon="1.81091">
        <ele>71</ele>
        <time>2022-06-29T01:58:21Z</time>
      </trkpt>
      <trkpt lat="50.47513" lon="1.81243">
        <ele>74</ele>
        <time>2022-06-29T02:02:07Z</time>
      </trkpt>
      <trkpt lat="50.47325" lon="1.81452">
        <ele>77</ele>
        <time>2022-06-29T02:07:14Z</time>
      </trkpt>
      <trkpt lat="50.47114" lon="1.81083">
        <ele>72</ele>
        <time>2022-06-29T02:14:16Z</time>
      </trkpt>
      <trkpt lat="50.4701" lon="1.81229">
        <ele>66</ele>
        <time>2022-06-29T02:17:22Z</time>
      </trkpt>
      <trkpt lat="50.46891" lon="1.81152">
        <ele>56</ele>
        <time>2022-06-29T02:20:14Z</time>
      </trkpt>
      <trkpt lat="50.46804" lon="1.81143">
        <ele>49</ele>
        <time>2022-06-29T02:22:10Z</time>
      </trkpt>
      <trkpt lat="50.46512" lon="1.80971">
        <ele>23</ele>
        <time>2022-06-29T02:29:06Z</time>
      </trkpt>
      <trkpt lat="50.46506" lon="1.8106">
        <ele>22</ele>
        <time>2022-06-29T02:30:22Z</time>
      </trkpt>
      <trkpt lat="50.46393" lon="1.81007">
        <ele>12</ele>
        <time>2022-06-29T02:32:59Z</time>
      </trkpt>
      <trkpt lat="50.46379" lon="1.81042">
        <ele>11</ele>
        <time>2022-06-29T02:33:35Z</time>
      </trkpt>
      <trkpt lat="50.46295" lon="1.80957">
        <ele>7</ele>
        <time>2022-06-29T02:35:48Z</time>
      </trkpt>
      <trkpt lat="50.46248" lon="1.81168">
        <ele>8</ele>
        <time>2022-06-29T02:38:58Z</time>
      </trkpt>
      <trkpt lat="50.46225" lon="1.81316">
        <ele>10</ele>
        <time>2022-06-29T02:41:07Z</time>
      </trkpt>
      <trkpt lat="50.46091" lon="1.81269">
        <ele>8</ele>
        <time>2022-06-29T02:44:10Z</time>
      </trkpt>
      <trkpt lat="50.45998" lon="1.81179">
        <ele>13</ele>
        <time>2022-06-29T02:46:36Z</time>
      </trkpt>
      <trkpt lat="50.45846" lon="1.81054">
        <ele>11</ele>
        <time>2022-06-29T02:50:25Z</time>
      </trkpt>
      <trkpt lat="50.45897" lon="1.81014">
        <ele>11</ele>
        <time>2022-06-29T02:51:41Z</time>
      </trkpt>
      <trkpt lat="50.45959" lon="1.80662">
        <ele>7</ele>
        <time>2022-06-29T02:56:51Z</time>
      </trkpt>
      <trkpt lat="50.46015" lon="1.8034">
        <ele>9</ele>
        <time>2022-06-29T03:01:35Z</time>
      </trkpt>
      <trkpt lat="50.46065" lon="1.80049">
        <ele>7</ele>
        <time>2022-06-29T03:05:51Z</time>
      </trkpt>
      <trkpt lat="50.46117" lon="1.79775">
        <ele>15</ele>
        <time>2022-06-29T03:09:54Z</time>
      </trkpt>
      <trkpt lat="50.46061" lon="1.79788">
        <ele>15</ele>
        <time>2022-06-29T03:11:10Z</time>
      </trkpt>
      <trkpt lat="50.46035" lon="1.79781">
        <ele>15</ele>
        <time>2022-06-29T03:11:45Z</time>
      </trkpt>
      <trkpt lat="50.45998" lon="1.79792">
        <ele>14</ele>
        <time>2022-06-29T03:12:35Z</time>
      </trkpt>
      <trkpt lat="50.45952" lon="1.79746">
        <ele>15</ele>
        <time>2022-06-29T03:13:48Z</time>
      </trkpt>
      <trkpt lat="50.45991" lon="1.79555">
        <ele>11</ele>
        <time>2022-06-29T03:16:38Z</time>
      </trkpt>
      <trkpt lat="50.46025" lon="1.79329">
        <ele>14</ele>
        <time>2022-06-29T03:19:55Z</time>
      </trkpt>
      <trkpt lat="50.46037" lon="1.79268">
        <ele>12</ele>
        <time>2022-06-29T03:20:50Z</time>
      </trkpt>
      <trkpt lat="50.46058" lon="1.79143">
        <ele>9</ele>
        <time>2022-06-29T03:22:40Z</time>
      </trkpt>
      <trkpt lat="50.46122" lon="1.79019">
        <ele>8</ele>
        <time>2022-06-29T03:24:55Z</time>
      </trkpt>
      <trkpt lat="50.46152" lon="1.7893">
        <ele>6</ele>
        <time>2022-06-29T03:26:21Z</time>
      </trkpt>
      <trkpt lat="50.46151" lon="1.78869">
        <ele>4</ele>
        <time>2022-06-29T03:27:13Z</time>
      </trkpt>
      <trkpt lat="50.46315" lon="1.78247">
        <ele>6</ele>
        <time>2022-06-29T03:36:44Z</time>
      </trkpt>
      <trkpt lat="50.4637" lon="1.78203">
        <ele>6</ele>
        <time>2022-06-29T03:38:07Z</time>
      </trkpt>
      <trkpt lat="50.46414" lon="1.78149">
        <ele>7</ele>
        <time>2022-06-29T03:39:21Z</time>
      </trkpt>
      <trkpt lat="50.46443" lon="1.78071">
        <ele>10</ele>
        <time>2022-06-29T03:40:38Z</time>
      </trkpt>
      <trkpt lat="50.4645" lon="1.77983">
        <ele>11</ele>
        <time>2022-06-29T03:41:53Z</time>
      </trkpt>
      <trkpt lat="50.46425" lon="1.77888">
        <ele>10</ele>
        <time>2022-06-29T03:43:21Z</time>
      </trkpt>
      <trkpt lat="50.4642" lon="1.77819">
        <ele>9</ele>
        <time>2022-06-29T03:44:20Z</time>
      </trkpt>
      <trkpt lat="50.46432" lon="1.77709">
        <ele>9</ele>
        <time>2022-06-29T03:45:55Z</time>
      </trkpt>
      <trkpt lat="50.46439" lon="1.7764">
        <ele>9</ele>
        <time>2022-06-29T03:46:54Z</time>
      </trkpt>
      <trkpt lat="50.46435" lon="1.7758">
        <ele>10</ele>
        <time>2022-06-29T03:47:45Z</time>
      </trkpt>
      <trkpt lat="50.46436" lon="1.77532">
        <ele>12</ele>
        <time>2022-06-29T03:48:26Z</time>
      </trkpt>
      <trkpt lat="50.46429" lon="1.77471">
        <ele>14</ele>
        <time>2022-06-29T03:49:19Z</time>
      </trkpt>
      <trkpt lat="50.46431" lon="1.77432">
        <ele>14</ele>
        <time>2022-06-29T03:49:52Z</time>
      </trkpt>
      <trkpt lat="50.4644" lon="1.77343">
        <ele>14</ele>
        <time>2022-06-29T03:51:08Z</time>
      </trkpt>
      <trkpt lat="50.46442" lon="1.77275">
        <ele>11</ele>
        <time>2022-06-29T03:52:06Z</time>
      </trkpt>
      <trkpt lat="50.46472" lon="1.77195">
        <ele>10</ele>
        <time>2022-06-29T03:53:25Z</time>
      </trkpt>
      <trkpt lat="50.46499" lon="1.77163">
        <ele>10</ele>
        <time>2022-06-29T03:54:10Z</time>
      </trkpt>
      <trkpt lat="50.4656" lon="1.77077">
        <ele>8</ele>
        <time>2022-06-29T03:56:00Z</time>
      </trkpt>
      <trkpt lat="50.46638" lon="1.76995">
        <ele>7</ele>
        <time>2022-06-29T03:58:05Z</time>
      </trkpt>
      <trkpt lat="50.46662" lon="1.76961">
        <ele>7</ele>
        <time>2022-06-29T03:58:48Z</time>
      </trkpt>
      <trkpt lat="50.46688" lon="1.7692">
        <ele>6</ele>
        <time>2022-06-29T03:59:37Z</time>
      </trkpt>
      <trkpt lat="50.46705" lon="1.76909">
        <ele>6</ele>
        <time>2022-06-29T04:00:02Z</time>
      </trkpt>
      <trkpt lat="50.46715" lon="1.769">
        <ele>6</ele>
        <time>2022-06-29T04:00:17Z</time>
      </trkpt>
      <trkpt lat="50.46796" lon="1.76804">
        <ele>7</ele>
        <time>2022-06-29T04:02:32Z</time>
      </trkpt>
      <trkpt lat="50.46757" lon="1.76763">
        <ele>9</ele>
        <time>2022-06-29T04:03:35Z</time>
      </trkpt>
      <trkpt lat="50.46737" lon="1.76752">
        <ele>11</ele>
        <time>2022-06-29T04:04:03Z</time>
      </trkpt>
      <trkpt lat="50.46734" lon="1.76686">
        <ele>14</ele>
        <time>2022-06-29T04:05:00Z</time>
      </trkpt>
      <trkpt lat="50.46724" lon="1.76657">
        <ele>16</ele>
        <time>2022-06-29T04:05:28Z</time>
      </trkpt>
      <trkpt lat="50.4672" lon="1.76571">
        <ele>19</ele>
        <time>2022-06-29T04:06:41Z</time>
      </trkpt>
      <trkpt lat="50.46704" lon="1.76508">
        <ele>23</ele>
        <time>2022-06-29T04:07:38Z</time>
      </trkpt>
      <trkpt lat="50.46674" lon="1.76478">
        <ele>29</ele>
        <time>2022-06-29T04:08:26Z</time>
      </trkpt>
      <trkpt lat="50.46669" lon="1.76481">
        <ele>30</ele>
        <time>2022-06-29T04:08:33Z</time>
      </trkpt>
      <trkpt lat="50.46668" lon="1.76508">
        <ele>30</ele>
        <time>2022-06-29T04:08:56Z</time>
      </trkpt>
      <trkpt lat="50.46661" lon="1.76542">
        <ele>31</ele>
        <time>2022-06-29T04:09:26Z</time>
      </trkpt>
      <trkpt lat="50.46653" lon="1.76486">
        <ele>33</ele>
        <time>2022-06-29T04:10:15Z</time>
      </trkpt>
      <trkpt lat="50.46641" lon="1.76446">
        <ele>36</ele>
        <time>2022-06-29T04:10:53Z</time>
      </trkpt>
      <trkpt lat="50.46643" lon="1.76489">
        <ele>35</ele>
        <time>2022-06-29T04:11:29Z</time>
      </trkpt>
      <trkpt lat="50.46647" lon="1.7653">
        <ele>34</ele>
        <time>2022-06-29T04:12:04Z</time>
      </trkpt>
      <trkpt lat="50.46638" lon="1.76595">
        <ele>34</ele>
        <time>2022-06-29T04:13:01Z</time>
      </trkpt>
      <trkpt lat="50.46643" lon="1.76608">
        <ele>33</ele>
        <time>2022-06-29T04:13:14Z</time>
      </trkpt>
      <trkpt lat="50.4664" lon="1.76641">
        <ele>31</ele>
        <time>2022-06-29T04:13:42Z</time>
      </trkpt>
      <trkpt lat="50.4662" lon="1.76653">
        <ele>34</ele>
        <time>2022-06-29T04:14:11Z</time>
      </trkpt>
      <trkpt lat="50.46542" lon="1.76752">
        <ele>34</ele>
        <time>2022-06-29T04:16:25Z</time>
      </trkpt>
      <trkpt lat="50.46507" lon="1.76807">
        <ele>31</ele>
        <time>2022-06-29T04:17:31Z</time>
      </trkpt>
      <trkpt lat="50.46496" lon="1.76787">
        <ele>36</ele>
        <time>2022-06-29T04:17:53Z</time>
      </trkpt>
      <trkpt lat="50.46403" lon="1.76785">
        <ele>37</ele>
        <time>2022-06-29T04:19:57Z</time>
      </trkpt>
      <trkpt lat="50.46379" lon="1.76755">
        <ele>38</ele>
        <time>2022-06-29T04:20:38Z</time>
      </trkpt>
      <trkpt lat="50.46262" lon="1.76614">
        <ele>39</ele>
        <time>2022-06-29T04:23:55Z</time>
      </trkpt>
      <trkpt lat="50.46245" lon="1.76609">
        <ele>38</ele>
        <time>2022-06-29T04:24:18Z</time>
      </trkpt>
      <trkpt lat="50.46211" lon="1.76472">
        <ele>41</ele>
        <time>2022-06-29T04:26:23Z</time>
      </trkpt>
      <trkpt lat="50.46172" lon="1.76296">
        <ele>45</ele>
        <time>2022-06-29T04:29:01Z</time>
      </trkpt>
      <trkpt lat="50.46116" lon="1.7624">
        <ele>44</ele>
        <time>2022-06-29T04:30:30Z</time>
      </trkpt>
      <trkpt lat="50.46129" lon="1.76153">
        <ele>47</ele>
        <time>2022-06-29T04:31:46Z</time>
      </trkpt>
      <trkpt lat="50.46138" lon="1.76152">
        <ele>48</ele>
        <time>2022-06-29T04:31:58Z</time>
      </trkpt>
      <trkpt lat="50.4615" lon="1.76053">
        <ele>48</ele>
        <time>2022-06-29T04:33:23Z</time>
      </trkpt>
      <trkpt lat="50.46179" lon="1.76059">
        <ele>48</ele>
        <time>2022-06-29T04:34:02Z</time>
      </trkpt>
      <trkpt lat="50.46203" lon="1.76046">
        <ele>48</ele>
        <time>2022-06-29T04:34:36Z</time>
      </trkpt>
      <trkpt lat="50.46242" lon="1.76119">
        <ele>49</ele>
        <time>2022-06-29T04:35:57Z</time>
      </trkpt>
      <trkpt lat="50.46265" lon="1.76085">
        <ele>49</ele>
        <time>2022-06-29T04:36:39Z</time>
      </trkpt>
      <trkpt lat="50.46371" lon="1.76178">
        <ele>52</ele>
        <time>2022-06-29T04:39:21Z</time>
      </trkpt>
      <trkpt lat="50.46349" lon="1.76221">
        <ele>51</ele>
        <time>2022-06-29T04:40:08Z</time>
      </trkpt>
      <trkpt lat="50.46392" lon="1.76266">
        <ele>51</ele>
        <time>2022-06-29T04:41:17Z</time>
      </trkpt>
    </trkseg>
  </trk>
</gpx>